Time;durP1;ratioP1;P1;durP2;ratioP2;P2;SDS_P1;SDS_P2;PMS_P1;PMS_P2;Temp;Humidity;BMP_temperature;BMP_pressure;BME280_temperature;BME280_humidity;BME280_pressure;Samples;Min_cycle;Max_cycle;Signal;HPM_P1;HPM_P2
2022/06/18 00:00:50;;;;;;;4.33;2.70;;;;;;;15.92;77.24;100193.06;1780107;80;20960;-75
2022/06/18 00:03:18;;;;;;;3.45;2.60;;;;;;;15.87;77.38;100187.37;1771062;78;21038;-73
2022/06/18 00:05:46;;;;;;;6.65;2.40;;;;;;;15.82;77.37;100196.31;1774002;78;20995;-73
2022/06/18 00:08:19;;;;;;;4.45;2.60;;;;;;;15.79;77.07;100197.98;1778550;78;21482;-73
2022/06/18 00:10:46;;;;;;;3.17;2.62;;;;;;;15.77;77.14;100194.64;1779107;79;21120;-75
2022/06/18 00:13:40;;;;;;;3.02;2.30;;;;;;;15.74;77.12;100193.14;1780305;79;20936;-73
2022/06/18 00:16:20;;;;;;;2.95;2.25;;;;;;;15.72;76.89;100200.44;1777867;78;21015;-72
2022/06/18 00:18:48;;;;;;;2.55;2.35;;;;;;;15.69;76.72;100198.09;1778091;79;21009;-73
2022/06/18 00:21:17;;;;;;;5.90;2.47;;;;;;;15.69;76.75;100199.43;1775957;79;21867;-73
2022/06/18 00:23:45;;;;;;;3.72;2.30;;;;;;;15.70;76.61;100202.42;1818777;78;21458;-73
2022/06/18 00:26:12;;;;;;;3.47;2.10;;;;;;;15.66;76.16;100198.92;1786317;78;20959;-74
2022/06/18 00:28:39;;;;;;;4.03;2.58;;;;;;;15.66;76.10;100197.59;1780395;78;21004;-74
2022/06/18 00:31:06;;;;;;;3.50;2.25;;;;;;;15.62;76.12;100194.39;1782470;78;20987;-74
2022/06/18 00:33:40;;;;;;;2.52;2.00;;;;;;;15.62;76.17;100196.22;1821720;78;21471;-74
2022/06/18 00:36:16;;;;;;;5.53;2.00;;;;;;;15.60;76.15;100202.17;1804829;78;21535;-74
2022/06/18 00:38:47;;;;;;;2.80;1.90;;;;;;;15.55;75.77;100198.67;1789494;79;21412;-74
2022/06/18 00:41:24;;;;;;;1.90;1.80;;;;;;;15.51;75.55;100194.64;1801993;78;20972;-74
2022/06/18 00:44:01;;;;;;;2.33;1.87;;;;;;;15.51;75.55;100197.80;1776748;78;20983;-74
2022/06/18 00:46:39;;;;;;;3.22;1.80;;;;;;;15.48;75.33;100190.14;1777778;80;21782;-75
2022/06/18 00:49:26;;;;;;;2.10;1.70;;;;;;;15.46;74.83;100196.95;1780491;80;21096;-74
2022/06/18 00:52:06;;;;;;;2.87;1.87;;;;;;;15.49;74.92;100194.47;1780533;80;21036;-74
2022/06/18 00:54:40;;;;;;;4.30;1.77;;;;;;;15.45;74.84;100198.78;1780943;80;21044;-74
2022/06/18 00:57:15;;;;;;;3.02;1.80;;;;;;;15.48;74.84;100196.80;1776185;79;21044;-74
2022/06/18 00:59:50;;;;;;;3.62;1.77;;;;;;;15.49;74.86;100199.79;1763537;78;21814;-73
2022/06/18 01:02:22;;;;;;;2.15;1.60;;;;;;;15.49;74.95;100200.63;1772768;78;21634;-75
2022/06/18 01:04:48;;;;;;;2.42;1.90;;;;;;;15.48;74.97;100200.28;1779640;79;21412;-73
2022/06/18 01:07:32;;;;;;;2.60;1.80;;;;;;;15.48;74.97;100197.63;1777341;78;21067;-74
2022/06/18 01:10:00;;;;;;;1.80;1.52;;;;;;;15.45;75.01;100202.78;1772236;78;20994;-74
2022/06/18 01:12:26;;;;;;;4.33;1.70;;;;;;;15.41;75.09;100190.76;1780514;78;21923;-75
2022/06/18 01:15:01;;;;;;;1.65;1.52;;;;;;;15.40;75.08;100187.77;1777109;80;21005;-76
2022/06/18 01:17:30;;;;;;;2.35;1.70;;;;;;;15.38;75.22;100191.08;1752885;80;20988;-75
2022/06/18 01:19:59;;;;;;;2.22;1.77;;;;;;;15.36;75.27;100196.23;1801545;79;20989;-78
2022/06/18 01:22:46;;;;;;;2.77;1.60;;;;;;;15.35;75.33;100200.72;1793548;78;20983;-75
2022/06/18 01:25:13;;;;;;;1.82;1.50;;;;;;;15.34;75.36;100197.69;1780413;79;21831;-76
2022/06/18 01:27:41;;;;;;;4.83;1.55;;;;;;;15.33;75.39;100201.84;1753355;80;20962;-76
2022/06/18 01:30:15;;;;;;;2.10;1.70;;;;;;;15.34;75.41;100204.84;1780541;79;21000;-77
2022/06/18 01:32:45;;;;;;;3.62;1.80;;;;;;;15.33;75.40;100205.83;1689823;83;21024;-76
2022/06/18 01:35:12;;;;;;;1.65;1.50;;;;;;;15.32;75.53;100206.33;1711425;82;20962;-76
2022/06/18 01:37:40;;;;;;;1.70;1.60;;;;;;;15.31;75.55;100208.66;1737362;82;22689;-75
2022/06/18 01:40:12;;;;;;;2.22;1.50;;;;;;;15.34;75.55;100208.83;1734728;80;21444;-75
2022/06/18 01:42:42;;;;;;;2.15;1.35;;;;;;;15.37;75.57;100212.03;1711670;82;20946;-75
2022/06/18 01:45:25;;;;;;;1.60;1.50;;;;;;;15.38;75.59;100208.88;1752230;80;20961;-76
2022/06/18 01:48:00;;;;;;;1.70;1.37;;;;;;;15.37;75.60;100212.53;1779573;78;27034;-75
2022/06/18 01:50:42;;;;;;;2.12;1.50;;;;;;;15.38;75.55;100221.69;1794008;78;21855;-74
2022/06/18 01:53:16;;;;;;;3.17;1.50;;;;;;;15.36;75.57;100227.67;1780437;80;20973;-73
2022/06/18 01:55:49;;;;;;;1.77;1.50;;;;;;;15.34;75.59;100221.64;1780731;78;21547;-75
2022/06/18 01:58:19;;;;;;;2.75;1.50;;;;;;;15.36;75.57;100231.66;1781168;78;21041;-75
2022/06/18 02:00:50;;;;;;;2.52;1.60;;;;;;;15.38;75.55;100220.85;1753518;80;20972;-75
2022/06/18 02:03:16;;;;;;;2.45;1.70;;;;;;;15.39;75.50;100220.69;1779213;79;21845;-74
2022/06/18 02:05:43;;;;;;;2.20;1.50;;;;;;;15.42;75.59;100221.70;1772677;78;21628;-76
2022/06/18 02:08:10;;;;;;;1.85;1.52;;;;;;;15.40;75.56;100218.37;1787934;78;21123;-76
2022/06/18 02:11:03;;;;;;;2.37;1.72;;;;;;;15.40;75.68;100218.37;1777694;78;21451;-75
2022/06/18 02:13:34;;;;;;;1.72;1.62;;;;;;;15.40;75.76;100218.37;1778901;78;21057;-75
2022/06/18 02:16:02;;;;;;;2.17;1.60;;;;;;;15.39;75.88;100219.36;1755408;80;22019;-76
2022/06/18 02:18:29;;;;;;;2.17;1.70;;;;;;;15.38;76.09;100215.03;1779166;78;21067;-74
2022/06/18 02:20:56;;;;;;;1.70;1.60;;;;;;;15.37;76.25;100218.69;1773512;79;20970;-75
2022/06/18 02:23:23;;;;;;;4.15;1.90;;;;;;;15.38;76.43;100222.19;1767681;78;21038;-75
2022/06/18 02:25:51;;;;;;;2.37;1.67;;;;;;;15.40;76.54;100225.02;1773663;78;20962;-75
2022/06/18 02:28:30;;;;;;;2.40;1.67;;;;;;;15.42;76.57;100221.70;1778804;78;21810;-74
2022/06/18 02:30:59;;;;;;;2.60;1.62;;;;;;;15.46;76.55;100225.73;1781805;78;21067;-75
2022/06/18 02:34:04;;;;;;;2.05;1.65;;;;;;;15.52;76.49;100232.73;1773709;79;20961;-75
2022/06/18 02:36:34;;;;;;;2.60;2.00;;;;;;;15.55;76.45;100229.78;1778704;78;21023;-75
2022/06/18 02:39:25;;;;;;;2.37;1.92;;;;;;;15.59;76.33;100229.80;1769619;79;21032;-75
2022/06/18 02:42:07;;;;;;;30.77;23.50;;;;;;;15.62;76.23;100224.17;1773638;78;21868;-75
2022/06/18 02:44:36;;;;;;;9.13;6.30;;;;;;;15.63;76.04;100224.52;1770755;78;21060;-75
2022/06/18 02:47:08;;;;;;;3.85;2.60;;;;;;;15.66;76.00;100226.87;1781532;79;21039;-74
2022/06/18 02:49:35;;;;;;;4.05;2.27;;;;;;;15.65;75.97;100229.20;1779943;79;21045;-75
2022/06/18 02:52:04;;;;;;;3.85;2.30;;;;;;;15.68;75.98;100225.72;1776169;78;20989;-75
2022/06/18 02:54:31;;;;;;;3.92;2.45;;;;;;;15.70;75.93;100221.06;1775801;78;21817;-75
2022/06/18 02:56:58;;;;;;;2.67;2.08;;;;;;;15.72;75.90;100227.56;1779974;79;21340;-75
2022/06/18 02:59:25;;;;;;;2.70;2.00;;;;;;;15.74;75.80;100230.92;1782495;78;20974;-75
2022/06/18 03:01:52;;;;;;;5.58;2.55;;;;;;;15.76;75.72;100226.27;1774965;78;20997;-75
2022/06/18 03:04:18;;;;;;;2.33;1.87;;;;;;;15.77;75.69;100227.94;1780513;78;20944;-75
2022/06/18 03:06:48;;;;;;;4.30;1.90;;;;;;;15.79;75.59;100227.27;1757929;80;20917;-75
2022/06/18 03:09:14;;;;;;;3.37;2.15;;;;;;;15.80;75.60;100230.27;1776225;78;21491;-75
2022/06/18 03:14:27;;;;;;;4.15;3.20;;;;;;;15.87;75.46;100226.48;1768642;78;20988;-75
2022/06/18 03:16:53;;;;;;;3.67;2.42;;;;;;;15.92;75.37;100237.02;1774012;79;21579;-73
2022/06/18 03:19:40;;;;;;;2.72;1.90;;;;;;;15.96;75.29;100237.52;1774497;79;22600;-73
2022/06/18 03:22:14;;;;;;;2.47;2.00;;;;;;;15.98;75.09;100239.52;1775934;79;21020;-74
2022/06/18 03:24:42;;;;;;;2.27;1.95;;;;;;;16.00;75.06;100244.18;1778016;79;20941;-73
2022/06/18 03:27:11;;;;;;;2.33;2.08;;;;;;;16.00;75.05;100246.34;1775247;79;21319;-74
2022/06/18 03:29:39;;;;;;;2.08;1.87;;;;;;;16.00;74.86;100243.68;1773911;79;20985;-75
2022/06/18 03:32:07;;;;;;;2.25;1.80;;;;;;;15.99;74.77;100247.34;1770757;79;21891;-73
2022/06/18 03:34:35;;;;;;;2.40;1.80;;;;;;;15.98;74.73;100244.34;1761289;79;20995;-75
2022/06/18 03:37:03;;;;;;;3.05;1.80;;;;;;;15.95;74.79;100247.84;1777074;79;21035;-75
2022/06/18 03:39:29;;;;;;;3.15;2.08;;;;;;;15.93;74.86;100252.00;1774915;79;21325;-74
2022/06/18 03:41:56;;;;;;;3.55;2.02;;;;;;;15.95;74.86;100255.33;1774179;79;21552;-74
2022/06/18 03:44:24;;;;;;;2.08;1.80;;;;;;;15.95;75.03;100259.32;1769124;79;22489;-74
2022/06/18 03:46:52;;;;;;;2.87;2.00;;;;;;;15.87;75.26;100249.95;1774873;79;20988;-74
2022/06/18 03:49:30;;;;;;;2.52;1.95;;;;;;;15.87;75.49;100258.44;1777358;79;20997;-73
2022/06/18 03:51:59;;;;;;;2.70;2.10;;;;;;;15.86;75.66;100250.95;1777703;79;20978;-73
2022/06/18 03:54:25;;;;;;;2.75;2.10;;;;;;;15.89;75.79;100253.78;1782077;79;21173;-73
2022/06/18 03:56:52;;;;;;;2.72;2.08;;;;;;;15.94;75.94;100248.83;1774357;79;21910;-73
2022/06/18 03:59:19;;;;;;;4.90;2.17;;;;;;;15.96;75.95;100253.50;1775649;79;20953;-73
2022/06/18 04:01:47;;;;;;;2.10;1.90;;;;;;;15.98;75.92;100248.84;1761391;79;20985;-73
2022/06/18 04:04:14;;;;;;;3.12;2.37;;;;;;;16.00;76.00;100253.50;1779460;79;21059;-74
2022/06/18 04:06:42;;;;;;;3.42;2.20;;;;;;;16.01;76.11;100256.00;1767566;79;21021;-75
2022/06/18 04:09:13;;;;;;;2.33;2.05;;;;;;;16.05;76.16;100254.37;1722240;79;21862;-75
2022/06/18 04:11:41;;;;;;;2.52;2.33;;;;;;;16.06;76.16;100262.20;1761731;79;21479;-75
2022/06/18 04:14:08;;;;;;;2.30;2.02;;;;;;;16.09;76.11;100261.87;1776508;79;21011;-75
2022/06/18 04:16:42;;;;;;;3.08;2.33;;;;;;;16.11;76.15;100262.54;1736052;80;20968;-73
2022/06/18 04:19:10;;;;;;;2.83;2.10;;;;;;;16.16;76.04;100265.57;1746707;80;21000;-75
2022/06/18 04:21:38;;;;;;;6.12;2.15;;;;;;;16.18;75.97;100269.41;1764826;79;21823;-75
2022/06/18 04:24:05;;;;;;;4.33;2.60;;;;;;;16.18;75.87;100274.73;1790361;79;21043;-75
2022/06/18 04:26:31;;;;;;;3.35;2.33;;;;;;;16.17;75.82;100271.73;1772778;79;21008;-75
2022/06/18 04:28:59;;;;;;;2.30;2.10;;;;;;;16.20;75.83;100273.56;1781637;79;20953;-74
2022/06/18 04:31:26;;;;;;;3.08;2.12;;;;;;;16.27;75.83;100274.61;1758813;79;21000;-74
2022/06/18 04:33:55;;;;;;;2.62;2.42;;;;;;;16.30;75.65;100277.44;1770687;79;21958;-76
2022/06/18 04:36:36;;;;;;;3.20;2.47;;;;;;;16.34;75.60;100286.80;1776149;79;20931;-76
2022/06/18 04:39:04;;;;;;;3.08;2.20;;;;;;;16.38;75.45;100284.63;1768235;79;21016;-74
2022/06/18 04:41:38;;;;;;;2.65;2.10;;;;;;;16.45;75.42;100288.33;1708885;79;20965;-74
2022/06/18 04:44:13;;;;;;;2.65;2.22;;;;;;;16.51;75.18;100294.36;1767113;79;21041;-74
2022/06/18 04:46:41;;;;;;;2.50;2.30;;;;;;;16.57;75.06;100301.19;1774814;79;21946;-74
2022/06/18 04:49:08;;;;;;;5.83;2.00;;;;;;;16.60;74.83;100299.55;1768916;79;20946;-73
2022/06/18 04:51:34;;;;;;;2.30;2.10;;;;;;;16.65;74.67;100304.39;1743770;79;21052;-73
2022/06/18 04:54:01;;;;;;;2.47;2.10;;;;;;;16.71;74.28;100304.28;1777171;79;21410;-74
2022/06/18 04:56:28;;;;;;;2.30;2.10;;;;;;;16.78;74.04;100305.27;1771981;79;21001;-73
2022/06/18 04:58:54;;;;;;;2.30;2.00;;;;;;;16.80;73.60;100301.97;1773313;79;21785;-76
2022/06/18 05:01:25;;;;;;;2.65;2.08;;;;;;;16.81;73.46;100305.80;1777707;79;20912;-73
2022/06/18 05:03:56;;;;;;;2.75;2.00;;;;;;;16.86;73.56;100313.30;1698743;80;21020;-74
2022/06/18 05:06:35;;;;;;;2.37;2.17;;;;;;;16.96;73.56;100309.98;1767991;79;21051;-74
2022/06/18 05:09:09;;;;;;;3.15;2.27;;;;;;;17.02;73.26;100313.34;1774472;79;20984;-73
2022/06/18 05:11:40;;;;;;;2.62;2.17;;;;;;;17.05;73.06;100310.83;1725450;80;21859;-75
2022/06/18 05:14:19;;;;;;;4.92;2.30;;;;;;;17.06;72.93;100314.66;1725482;81;21530;-76
2022/06/18 05:16:48;;;;;;;3.90;2.17;;;;;;;17.13;72.93;100316.18;1736795;82;21365;-73
2022/06/18 05:19:25;;;;;;;2.95;1.90;;;;;;;17.17;72.70;100313.00;1721774;81;21435;-75
2022/06/18 05:21:54;;;;;;;2.95;1.98;;;;;;;17.19;72.64;100314.20;1721709;82;21005;-73
2022/06/18 05:24:21;;;;;;;4.60;2.35;;;;;;;17.26;72.45;100315.17;1727696;83;21957;-75
2022/06/18 05:26:50;;;;;;;2.40;2.00;;;;;;;17.29;72.27;100312.20;1741132;82;21119;-76
2022/06/18 05:29:18;;;;;;;4.67;2.60;;;;;;;17.33;72.26;100314.02;1681407;83;21057;-79
2022/06/18 05:31:44;;;;;;;2.70;2.10;;;;;;;17.36;72.16;100312.34;1738605;80;21076;-80
2022/06/18 05:34:12;;;;;;;3.40;2.33;;;;;;;17.39;72.01;100313.36;1727146;81;21022;-81
2022/06/18 05:36:41;;;;;;;2.70;2.10;;;;;;;17.43;72.13;100314.19;1709910;82;22311;-73
2022/06/18 05:39:07;;;;;;;2.70;2.40;;;;;;;17.50;71.97;100317.02;1726675;83;21650;-78
2022/06/18 05:41:36;;;;;;;2.45;1.98;;;;;;;17.54;71.81;100314.34;1710147;83;21390;-76
2022/06/18 05:44:03;;;;;;;2.42;2.22;;;;;;;17.57;71.79;100318.03;1717215;81;21555;-73
2022/06/18 05:46:30;;;;;;;2.70;2.00;;;;;;;17.58;71.43;100322.37;1733504;80;21445;-74
2022/06/18 05:48:57;;;;;;;2.87;2.00;;;;;;;17.63;71.40;100325.34;1747970;80;22484;-75
2022/06/18 05:51:24;;;;;;;3.35;2.20;;;;;;;17.68;71.26;100327.03;1726500;83;21088;-76
2022/06/18 05:53:50;;;;;;;2.33;2.00;;;;;;;17.69;71.09;100334.53;1739730;80;21036;-76
2022/06/18 05:56:24;;;;;;;3.17;2.03;;;;;;;17.66;70.88;100334.85;1681802;84;21145;-74
2022/06/18 05:58:55;;;;;;;2.85;2.05;;;;;;;17.67;70.97;100336.05;1721203;81;21013;-71
2022/06/18 06:01:23;;;;;;;3.05;2.00;;;;;;;17.69;70.61;100338.08;1729084;81;22510;-73
2022/06/18 06:03:50;;;;;;;5.20;2.10;;;;;;;17.69;70.71;100338.08;1730561;81;21055;-74
2022/06/18 06:06:17;;;;;;;4.28;2.12;;;;;;;17.69;70.32;100336.73;1703293;83;21012;-72
2022/06/18 06:08:46;;;;;;;2.60;2.20;;;;;;;17.66;70.13;100334.85;1731013;81;21627;-72
2022/06/18 06:11:29;;;;;;;2.60;1.95;;;;;;;17.68;70.35;100335.04;1724570;81;21071;-75
2022/06/18 06:14:01;;;;;;;2.00;1.77;;;;;;;17.72;70.38;100338.23;1716230;82;22252;-74
2022/06/18 06:16:28;;;;;;;2.17;1.90;;;;;;;17.77;70.16;100341.75;1712169;82;20998;-76
2022/06/18 06:18:57;;;;;;;2.20;2.00;;;;;;;17.77;69.49;100344.42;1768062;78;21017;-76
2022/06/18 06:21:24;;;;;;;3.17;2.10;;;;;;;17.73;69.36;100346.07;1771282;79;21044;-79
2022/06/18 06:23:50;;;;;;;2.52;2.00;;;;;;;17.73;69.42;100347.91;1773452;78;22350;-71
2022/06/18 06:26:26;;;;;;;3.22;2.02;;;;;;;17.81;69.41;100345.73;1763639;78;22196;-72
2022/06/18 06:28:54;;;;;;;3.58;1.90;;;;;;;17.87;69.15;100347.23;1784038;78;21547;-75
2022/06/18 06:31:21;;;;;;;4.03;2.05;;;;;;;17.91;68.98;100338.37;1786881;78;21400;-72
2022/06/18 06:33:48;;;;;;;2.40;1.80;;;;;;;17.98;68.97;100343.38;1774934;78;21090;-72
2022/06/18 06:36:14;;;;;;;2.15;1.80;;;;;;;18.02;68.62;100342.84;1785811;78;21100;-73
2022/06/18 06:38:40;;;;;;;2.05;1.80;;;;;;;18.03;68.35;100341.84;1774886;80;21877;-72
2022/06/18 06:41:14;;;;;;;3.25;1.90;;;;;;;18.14;68.36;100343.81;1769694;80;21039;-73
2022/06/18 06:43:41;;;;;;;1.87;1.27;;;;;;;18.23;68.16;100343.62;1772491;80;21079;-71
2022/06/18 06:46:12;;;;;;;2.83;1.80;;;;;;;18.28;67.88;100342.62;1760201;80;21549;-71
2022/06/18 06:48:40;;;;;;;2.55;2.00;;;;;;;18.38;67.72;100346.93;1746113;80;20944;-71
2022/06/18 06:51:19;;;;;;;2.15;1.87;;;;;;;18.40;67.05;100344.41;1764893;80;21844;-72
2022/06/18 06:53:46;;;;;;;1.98;1.77;;;;;;;18.38;66.63;100346.93;1773832;80;21027;-73
2022/06/18 06:59:00;;;;;;;4.45;1.80;;;;;;;18.40;66.79;100355.61;1763928;80;20960;-72
2022/06/18 07:01:27;;;;;;;1.72;1.50;;;;;;;18.45;66.35;100358.11;1769434;80;21040;-74
2022/06/18 07:03:53;;;;;;;3.70;1.77;;;;;;;18.45;66.12;100356.77;1773929;80;21918;-73
2022/06/18 07:06:21;;;;;;;3.40;1.85;;;;;;;18.46;66.15;100354.92;1775100;79;21041;-72
2022/06/18 07:08:48;;;;;;;1.98;1.50;;;;;;;18.49;66.07;100359.41;1764597;80;21443;-74
2022/06/18 07:11:16;;;;;;;3.47;1.70;;;;;;;18.49;65.75;100360.75;1754906;80;21538;-77
2022/06/18 07:13:43;;;;;;;1.65;1.50;;;;;;;18.52;65.70;100363.06;1768443;80;21446;-73
2022/06/18 07:16:14;;;;;;;1.62;1.47;;;;;;;18.55;65.46;100358.73;1753701;80;21857;-74
2022/06/18 07:18:42;;;;;;;2.80;1.60;;;;;;;18.60;65.03;100359.53;1767910;80;21015;-73
2022/06/18 07:21:13;;;;;;;2.17;1.77;;;;;;;18.68;65.07;100360.03;1782787;80;21175;-72
2022/06/18 07:23:40;;;;;;;1.62;1.47;;;;;;;18.74;64.74;100362.86;1786220;80;21410;-75
2022/06/18 07:26:11;;;;;;;2.05;1.52;;;;;;;18.82;64.58;100356.64;1765857;79;21063;-72
2022/06/18 07:28:37;;;;;;;1.95;1.40;;;;;;;18.95;64.72;100362.23;1748140;80;22704;-73
2022/06/18 07:31:04;;;;;;;1.92;1.52;;;;;;;19.08;64.38;100354.95;1769342;80;21027;-73
2022/06/18 07:33:33;;;;;;;5.60;1.72;;;;;;;19.21;63.66;100363.25;1771578;80;20992;-71
2022/06/18 07:36:00;;;;;;;1.95;1.70;;;;;;;19.28;63.40;100365.52;1775868;80;21004;-71
2022/06/18 07:38:27;;;;;;;1.50;1.40;;;;;;;19.31;62.72;100365.19;1774562;80;21114;-73
2022/06/18 07:40:54;;;;;;;1.60;1.50;;;;;;;19.32;62.94;100362.00;1783740;80;21803;-72
2022/06/18 07:43:35;;;;;;;1.70;1.50;;;;;;;19.39;62.75;100365.61;1769520;80;21043;-72
2022/06/18 07:46:03;;;;;;;2.72;1.75;;;;;;;19.46;62.88;100374.60;1764684;80;20973;-72
2022/06/18 07:48:30;;;;;;;2.35;1.75;;;;;;;19.57;62.63;100366.67;1760426;78;21001;-72
2022/06/18 07:50:57;;;;;;;2.45;1.70;;;;;;;19.71;62.89;100368.58;1776274;80;21467;-73
2022/06/18 07:53:25;;;;;;;2.08;1.82;;;;;;;19.91;62.42;100364.88;1720770;81;21917;-71
2022/06/18 07:55:54;;;;;;;1.90;1.60;;;;;;;19.88;61.36;100364.74;1715466;81;20963;-72
2022/06/18 07:58:21;;;;;;;1.70;1.60;;;;;;;19.91;61.65;100366.22;1764788;80;21036;-72
2022/06/18 08:00:47;;;;;;;2.55;1.70;;;;;;;20.05;61.36;100364.55;1762462;80;21064;-74
2022/06/18 08:03:15;;;;;;;2.17;1.60;;;;;;;20.25;61.32;100360.31;1768930;80;21005;-73
2022/06/18 08:05:43;;;;;;;2.33;1.60;;;;;;;20.41;59.91;100362.81;1761717;80;21837;-77
2022/06/18 08:08:10;;;;;;;1.90;1.70;;;;;;;20.53;59.99;100367.23;1750700;80;21114;-71
2022/06/18 08:10:37;;;;;;;2.60;1.80;;;;;;;20.67;59.03;100379.81;1777963;80;21148;-74
2022/06/18 08:13:03;;;;;;;1.70;1.60;;;;;;;20.61;58.45;100367.64;1751422;80;21138;-72
2022/06/18 08:15:31;;;;;;;1.95;1.60;;;;;;;20.61;58.70;100371.67;1767465;79;20960;-74
2022/06/18 08:17:59;;;;;;;2.22;1.50;;;;;;;20.64;58.41;100360.55;1786053;79;20984;-73
2022/06/18 08:20:26;;;;;;;2.65;1.75;;;;;;;20.80;58.76;100368.40;1789093;80;20984;-72
2022/06/18 08:22:55;;;;;;;15.60;14.10;;;;;;;20.90;57.42;100364.90;1780241;80;21475;-72
2022/06/18 08:25:24;;;;;;;3.33;2.50;;;;;;;20.99;57.37;100364.28;1777817;80;21066;-75
2022/06/18 08:27:50;;;;;;;7.72;5.47;;;;;;;20.93;57.65;100373.91;1772659;80;21019;-74
2022/06/18 08:30:18;;;;;;;14.55;10.75;;;;;;;20.86;57.77;100373.85;1774991;79;21784;-71
2022/06/18 08:32:45;;;;;;;2.65;1.95;;;;;;;20.86;57.71;100372.52;1778620;80;21423;-72
2022/06/18 08:35:12;;;;;;;2.35;1.82;;;;;;;20.86;57.25;100370.34;1781390;78;20975;-73
2022/06/18 08:37:39;;;;;;;2.15;1.90;;;;;;;20.87;57.84;100372.00;1775404;80;21000;-76
2022/06/18 08:40:34;;;;;;;2.45;1.32;;;;;;;21.05;58.13;100378.30;1770519;80;21046;-76
2022/06/18 08:42:49;;;;;;;;;;;;;;;21.27;58.04;100377.32;1749113;80;21937;-75
2022/06/18 08:45:31;;;;;;;2.70;1.87;;;;;;;21.52;56.95;100372.41;1769955;80;20143;-74
2022/06/18 08:48:19;;;;;;;3.65;1.70;;;;;;;21.57;55.83;100378.02;1785326;80;20978;-74
2022/06/18 08:50:58;;;;;;;2.10;1.60;;;;;;;21.62;56.94;100376.94;1789290;79;21461;-71
2022/06/18 08:54:03;;;;;;;2.30;1.60;;;;;;;21.74;56.05;100372.37;1789123;79;20999;-74
2022/06/18 08:56:46;;;;;;;2.33;1.90;;;;;;;21.87;56.59;100372.47;1787656;78;21914;-74
2022/06/18 08:59:36;;;;;;;2.67;2.00;;;;;;;21.96;55.40;100366.75;1789343;79;20940;-74
2022/06/18 09:02:33;;;;;;;2.80;1.70;;;;;;;22.01;55.69;100368.87;1789485;80;20968;-74
2022/06/18 09:05:08;;;;;;;2.70;1.80;;;;;;;21.94;54.63;100366.64;1783693;80;21012;-74
2022/06/18 09:08:10;;;;;;;2.40;2.00;;;;;;;21.73;54.79;100368.86;1789278;79;21008;-73
2022/06/18 09:11:06;;;;;;;2.87;2.17;;;;;;;21.53;55.74;100375.41;1788883;80;21909;-74
2022/06/18 09:13:57;;;;;;;2.12;1.90;;;;;;;21.46;56.13;100372.34;1802672;78;21047;-76
2022/06/18 09:16:32;;;;;;;2.62;1.80;;;;;;;21.41;56.01;100367.52;1792272;78;21136;-75
2022/06/18 09:19:00;;;;;;;2.10;1.70;;;;;;;21.46;56.25;100364.27;1787463;80;21034;-75
2022/06/18 09:21:33;;;;;;;3.08;1.95;;;;;;;21.58;56.22;100367.58;1747418;80;20960;-75
2022/06/18 09:24:07;;;;;;;2.75;1.90;;;;;;;21.69;55.59;100366.23;1791397;78;21881;-75
2022/06/18 09:26:45;;;;;;;2.20;1.80;;;;;;;21.60;55.19;100360.15;1787178;78;21035;-75
2022/06/18 09:29:28;;;;;;;3.02;1.90;;;;;;;21.57;55.78;100359.72;1786938;78;21035;-76
2022/06/18 09:32:06;;;;;;;2.60;1.90;;;;;;;21.51;55.44;100372.58;1783106;80;21114;-76
2022/06/18 09:34:41;;;;;;;1.80;1.70;;;;;;;21.48;55.66;100369.77;1749228;78;21031;-76
2022/06/18 09:37:18;;;;;;;1.80;1.70;;;;;;;21.51;55.47;100372.58;1765122;78;21966;-79
2022/06/18 09:39:49;;;;;;;2.85;1.90;;;;;;;21.52;55.39;100368.38;1777832;79;21053;-73
2022/06/18 09:42:30;;;;;;;3.40;2.10;;;;;;;21.69;56.10;100370.26;1775812;80;21042;-72
2022/06/18 09:45:26;;;;;;;4.05;1.95;;;;;;;21.82;55.54;100366.86;1777188;78;21059;-76
2022/06/18 09:47:52;;;;;;;3.17;1.65;;;;;;;21.92;54.56;100361.98;1778668;80;21438;-73
2022/06/18 09:50:46;;;;;;;2.62;1.90;;;;;;;22.03;54.66;100361.94;1793735;78;22178;-77
2022/06/18 09:53:27;;;;;;;2.20;1.80;;;;;;;22.20;54.50;100360.13;1787415;78;21030;-74
2022/06/18 09:56:05;;;;;;;2.00;1.80;;;;;;;22.42;53.78;100364.07;1787949;78;21071;-73
2022/06/18 09:58:56;;;;;;;2.02;1.80;;;;;;;22.44;53.12;100366.05;1786697;78;21576;-71
2022/06/18 10:01:30;;;;;;;1.80;1.60;;;;;;;22.36;52.98;100366.20;1782988;78;21000;-72
2022/06/18 10:07:02;;;;;;;2.33;1.82;;;;;;;22.52;51.94;100359.16;1785957;78;21030;-76
2022/06/18 10:09:16;;;;;;;1.82;1.65;;;;;;;22.66;52.78;100367.59;1778561;80;21553;-75
2022/06/18 10:11:43;;;;;;;1.82;1.57;;;;;;;22.72;51.84;100362.76;1787516;80;21069;-75
2022/06/18 10:14:19;;;;;;;5.65;3.90;;;;;;;22.66;50.74;100356.82;1771970;79;22175;-75
2022/06/18 10:17:19;;;;;;;3.33;2.05;;;;;;;22.82;51.51;100350.27;1766703;78;21827;-77
2022/06/18 10:20:10;;;;;;;1.65;1.47;;;;;;;23.21;50.35;100358.99;1781394;78;21732;-74
2022/06/18 10:23:04;;;;;;;1.87;1.60;;;;;;;23.49;49.06;100365.56;1768836;80;21031;-74
2022/06/18 10:25:43;;;;;;;1.67;1.57;;;;;;;23.50;48.95;100367.74;1764957;78;21088;-74
2022/06/18 10:28:33;;;;;;;2.42;1.47;;;;;;;23.35;48.74;100363.36;1774171;78;21048;-73
2022/06/18 10:31:11;;;;;;;2.33;1.80;;;;;;;23.36;48.53;100366.91;1771573;78;21910;-74
2022/06/18 10:34:11;;;;;;;2.20;1.72;;;;;;;23.44;48.40;100358.59;1749857;80;21031;-72
2022/06/18 10:37:06;;;;;;;2.80;1.62;;;;;;;23.40;48.49;100358.71;1769591;78;21051;-73
2022/06/18 10:40:08;;;;;;;2.37;1.67;;;;;;;23.41;49.66;100362.55;1743133;80;21059;-73
2022/06/18 10:43:23;;;;;;;2.25;1.50;;;;;;;23.64;49.14;100373.47;1784503;80;21029;-73
2022/06/18 10:46:02;;;;;;;2.00;1.55;;;;;;;23.81;46.98;100362.58;1761830;80;21873;-74
2022/06/18 10:48:30;;;;;;;2.25;1.37;;;;;;;23.80;46.58;100356.88;1787504;80;21034;-73
2022/06/18 10:50:58;;;;;;;2.55;1.30;;;;;;;23.99;46.36;100357.38;1771887;78;21515;-75
2022/06/18 10:53:37;;;;;;;2.65;1.50;;;;;;;24.19;46.35;100352.47;1777411;78;21031;-72
2022/06/18 10:56:08;;;;;;;2.90;1.40;;;;;;;24.43;45.53;100355.05;1765984;79;21089;-73
2022/06/18 10:58:34;;;;;;;1.65;1.20;;;;;;;24.60;44.31;100345.41;1779540;78;21922;-73
2022/06/18 11:01:12;;;;;;;1.87;1.30;;;;;;;24.70;44.84;100342.24;1770573;80;21050;-73
2022/06/18 11:03:40;;;;;;;1.77;1.50;;;;;;;24.93;45.08;100339.86;1766842;78;21051;-73
2022/06/18 11:06:11;;;;;;;1.80;1.45;;;;;;;25.17;43.74;100351.79;1786561;80;21050;-74
2022/06/18 11:08:43;;;;;;;;;;;;;;;25.01;43.30;100345.02;1792170;80;21399;-75
2022/06/18 11:11:14;;;;;;;2.20;1.60;;;;;;;25.04;44.06;100337.84;1786211;80;20442;-74
2022/06/18 11:13:44;;;;;;;1.77;1.50;;;;;;;25.30;44.78;100340.08;1785780;78;21490;-74
2022/06/18 11:16:21;;;;;;;2.75;1.50;;;;;;;25.63;43.38;100333.88;1799402;78;21082;-75
2022/06/18 11:18:54;;;;;;;1.70;1.30;;;;;;;26.05;42.89;100334.12;1781436;78;21458;-77
2022/06/18 11:21:34;;;;;;;1.85;1.55;;;;;;;26.28;42.16;100336.19;1758506;80;21546;-74
2022/06/18 11:24:17;;;;;;;2.20;1.35;;;;;;;26.15;40.71;100337.17;1778918;78;21837;-76
2022/06/18 11:26:52;;;;;;;1.70;1.60;;;;;;;25.81;41.94;100344.48;1777798;80;20996;-74
2022/06/18 11:29:26;;;;;;;2.95;1.52;;;;;;;25.60;42.57;100341.09;1781556;78;21032;-74
2022/06/18 11:31:55;;;;;;;3.35;1.45;;;;;;;25.33;42.77;100340.45;1778734;80;21000;-76
2022/06/18 11:34:26;;;;;;;1.50;1.40;;;;;;;25.09;43.57;100339.39;1778848;80;21046;-73
2022/06/18 11:36:55;;;;;;;1.70;1.40;;;;;;;24.97;43.63;100337.54;1778983;80;21779;-74
2022/06/18 11:39:37;;;;;;;1.50;1.40;;;;;;;25.02;44.15;100330.48;1778680;78;21084;-73
2022/06/18 11:42:21;;;;;;;2.05;1.70;;;;;;;25.24;43.68;100336.36;1778012;80;21062;-74
2022/06/18 11:45:05;;;;;;;2.27;1.40;;;;;;;25.41;44.53;100327.20;1754374;80;21037;-76
2022/06/18 11:48:12;;;;;;;4.42;1.50;;;;;;;25.67;42.81;100318.87;1778774;80;21012;-74
2022/06/18 11:51:06;;;;;;;1.55;1.30;;;;;;;25.69;42.58;100332.17;1731774;80;21968;-75
2022/06/18 11:53:57;;;;;;;2.25;1.90;;;;;;;25.68;41.43;100326.46;1778453;78;21534;-76
2022/06/18 11:57:01;;;;;;;1.47;1.30;;;;;;;25.69;41.74;100320.83;1776466;78;21354;-73
2022/06/18 11:59:42;;;;;;;1.55;1.37;;;;;;;25.94;41.34;100319.45;1780617;80;20996;-76
2022/06/18 12:02:15;;;;;;;1.40;1.17;;;;;;;26.20;39.93;100325.66;1784908;78;20944;-75